createdAt,value
2022-08-29T00:01:13.488Z,97689.41
2022-08-29T00:03:41.093Z,97688.63
2022-08-29T00:06:10.719Z,97685.91
2022-08-29T00:08:37.740Z,97685.72
2022-08-29T00:11:06.902Z,97679.63
2022-08-29T00:13:34.625Z,97675.59
2022-08-29T00:16:01.575Z,97675.44
2022-08-29T00:18:28.599Z,97679.47
2022-08-29T00:20:55.774Z,97676.28
2022-08-29T00:23:22.878Z,97677.84
2022-08-29T00:25:50.387Z,97683.81
2022-08-29T00:28:17.440Z,97680.31
2022-08-29T00:30:44.762Z,97679.63
2022-08-29T00:33:13.478Z,97683.63
2022-08-29T00:35:42.377Z,97688.13
2022-08-29T00:38:11.798Z,97691.50
2022-08-29T00:40:51.163Z,97694.22
2022-08-29T00:43:26.447Z,97688.50
2022-08-29T00:46:11.709Z,97687.00
2022-08-29T00:48:41.393Z,97684.28
2022-08-29T00:51:15.611Z,97690.72
2022-08-29T00:53:46.102Z,97689.22
2022-08-29T00:56:15.676Z,97691.91
2022-08-29T00:58:50.409Z,97687.72
2022-08-29T01:01:17.839Z,97680.41
2022-08-29T01:03:45.107Z,97684.16
2022-08-29T01:06:16.544Z,97679.41
2022-08-29T01:08:44.638Z,97680.16
2022-08-29T01:11:33.937Z,97674.66
2022-08-29T01:14:01.959Z,97677.66
2022-08-29T01:16:29.431Z,97677.22
2022-08-29T01:19:01.558Z,97683.22
2022-08-29T01:21:40.120Z,97675.97
2022-08-29T01:24:39.829Z,97674.13
2022-08-29T01:27:07.822Z,97673.06
2022-08-29T01:29:36.223Z,97678.44
2022-08-29T01:32:04.266Z,97672.09
2022-08-29T01:34:32.015Z,97668.34
2022-08-29T01:37:02.227Z,97669.00
2022-08-29T01:39:32.741Z,97663.13
2022-08-29T01:42:01.993Z,97662.91
2022-08-29T01:44:28.958Z,97663.88
2022-08-29T01:47:01.787Z,97660.28
2022-08-29T01:49:29.837Z,97669.56
2022-08-29T01:51:56.863Z,97667.06
2022-08-29T01:54:23.996Z,97665.38
2022-08-29T01:56:52.816Z,97662.88
2022-08-29T01:59:22.766Z,97660.03
2022-08-29T02:01:58.461Z,97666.06
2022-08-29T02:04:25.655Z,97668.00
2022-08-29T02:06:52.753Z,97661.41
2022-08-29T02:09:19.842Z,97661.09
2022-08-29T02:11:48.396Z,97665.44
2022-08-29T02:14:19.586Z,97664.66
2022-08-29T02:16:48.621Z,97659.59
2022-08-29T02:19:16.829Z,97660.19
2022-08-29T02:21:44.556Z,97659.41
2022-08-29T02:24:24.910Z,97653.47
2022-08-29T02:26:53.574Z,97660.84
2022-08-29T02:29:20.562Z,97663.88
2022-08-29T02:31:47.892Z,97663.06
2022-08-29T02:34:15.277Z,97662.56
2022-08-29T02:36:43.006Z,97666.25
2022-08-29T02:39:12.042Z,97663.03
2022-08-29T02:41:39.342Z,97654.72
2022-08-29T02:44:09.128Z,97657.72
2022-08-29T02:46:37.285Z,97662.44
2022-08-29T02:49:05.114Z,97665.19
2022-08-29T02:51:33.217Z,97663.88
2022-08-29T02:54:01.352Z,97672.63
2022-08-29T02:56:29.382Z,97665.03
2022-08-29T02:58:56.377Z,97666.28
2022-08-29T03:01:25.244Z,97669.97
2022-08-29T03:03:53.033Z,97679.00
2022-08-29T03:06:20.895Z,97679.97
2022-08-29T03:08:47.887Z,97674.50
2022-08-29T03:11:16.144Z,97688.88
2022-08-29T03:13:44.494Z,97690.72
2022-08-29T03:16:12.750Z,97691.06
2022-08-29T03:18:40.043Z,97690.00
2022-08-29T03:21:15.897Z,97696.41
2022-08-29T03:23:42.851Z,97693.56
2022-08-29T03:26:09.826Z,97698.47
2022-08-29T03:28:36.816Z,97689.56
2022-08-29T03:31:04.169Z,97693.47
2022-08-29T03:33:31.237Z,97699.00
2022-08-29T03:35:58.532Z,97687.25
2022-08-29T03:38:25.497Z,97691.66
2022-08-29T03:40:53.522Z,97691.97
2022-08-29T03:43:25.279Z,97694.16
2022-08-29T03:45:52.971Z,97700.53
2022-08-29T03:48:19.910Z,97703.25
2022-08-29T03:50:46.873Z,97705.56
2022-08-29T03:53:13.947Z,97708.19
2022-08-29T03:55:41.838Z,97707.69
2022-08-29T03:58:08.854Z,97710.41
2022-08-29T04:00:36.082Z,97709.81
2022-08-29T04:03:03.249Z,97712.22
2022-08-29T04:05:30.277Z,97708.19
2022-08-29T04:07:59.102Z,97710.91
2022-08-29T04:10:30.179Z,97707.91
2022-08-29T04:12:58.054Z,97714.53
2022-08-29T04:15:27.485Z,97713.22
2022-08-29T04:17:57.694Z,97713.66
2022-08-29T04:20:28.253Z,97715.63
2022-08-29T04:22:57.054Z,97716.25
2022-08-29T04:25:25.770Z,97720.88
2022-08-29T04:27:53.526Z,97719.84
2022-08-29T04:30:23.179Z,97720.81
2022-08-29T04:32:50.959Z,97723.44
2022-08-29T04:35:17.992Z,97729.00
2022-08-29T04:37:45.601Z,97726.84
2022-08-29T04:40:17.629Z,97729.56
2022-08-29T04:42:44.938Z,97727.66
2022-08-29T04:45:14.581Z,97732.28
2022-08-29T04:47:42.868Z,97722.53
2022-08-29T04:50:12.943Z,97727.72
2022-08-29T04:52:40.346Z,97719.72
2022-08-29T04:55:08.735Z,97731.22
2022-08-29T04:57:37.379Z,97727.72
2022-08-29T05:00:12.564Z,97728.25
2022-08-29T05:02:40.738Z,97731.66
2022-08-29T05:05:09.814Z,97729.94
2022-08-29T05:07:38.181Z,97737.09
2022-08-29T05:10:24.312Z,97727.50
2022-08-29T05:12:51.222Z,97729.94
2022-08-29T05:15:18.838Z,97737.03
2022-08-29T05:17:45.809Z,97735.91
2022-08-29T05:20:13.068Z,97733.75
2022-08-29T05:22:42.207Z,97735.63
2022-08-29T05:25:15.744Z,97738.34
2022-08-29T05:27:44.691Z,97728.63
2022-08-29T05:30:11.755Z,97741.78
2022-08-29T05:32:39.249Z,97746.94
2022-08-29T05:35:06.982Z,97745.81
2022-08-29T05:37:34.191Z,97740.97
2022-08-29T05:40:01.250Z,97736.16
2022-08-29T05:42:28.285Z,97734.03
2022-08-29T05:44:55.296Z,97749.19
2022-08-29T05:47:22.711Z,97749.03
2022-08-29T05:49:50.243Z,97747.00
2022-08-29T05:52:20.203Z,97747.25
2022-08-29T05:54:47.659Z,97742.59
2022-08-29T05:57:19.334Z,97748.88
2022-08-29T05:59:48.223Z,97756.69
2022-08-29T06:02:16.212Z,97750.50
2022-08-29T06:04:43.373Z,97753.81
2022-08-29T06:07:11.091Z,97752.06
2022-08-29T06:09:40.202Z,97749.31
2022-08-29T06:12:08.863Z,97750.59
2022-08-29T06:14:36.693Z,97749.63
2022-08-29T06:17:06.280Z,97748.56
2022-08-29T06:19:36.537Z,97761.03
2022-08-29T06:22:07.696Z,97746.16
2022-08-29T06:24:38.758Z,97751.97
2022-08-29T06:27:06.167Z,97753.72
2022-08-29T06:29:42.941Z,97753.94
2022-08-29T06:32:11.565Z,97752.13
2022-08-29T06:34:38.563Z,97745.84
2022-08-29T06:37:05.524Z,97754.47
2022-08-29T06:39:32.456Z,97747.44
2022-08-29T06:41:59.607Z,97758.56
2022-08-29T06:44:30.699Z,97753.16
2022-08-29T06:46:58.941Z,97749.94
2022-08-29T06:49:27.843Z,97750.34
2022-08-29T06:51:58.243Z,97748.81
2022-08-29T06:54:28.321Z,97744.53
2022-08-29T06:56:56.753Z,97752.38
2022-08-29T06:59:24.127Z,97751.47
2022-08-29T07:01:51.233Z,97756.34
2022-08-29T07:04:20.634Z,97749.13
2022-08-29T07:06:49.126Z,97755.38
2022-08-29T07:09:16.894Z,97745.03
2022-08-29T07:11:44.200Z,97760.03
2022-08-29T07:14:12.579Z,97755.16
2022-08-29T07:16:40.944Z,97753.81
2022-08-29T07:19:10.424Z,97760.75
2022-08-29T07:21:38.725Z,97757.56
2022-08-29T07:24:07.329Z,97762.44
2022-08-29T07:26:39.071Z,97758.88
2022-08-29T07:29:10.710Z,97764.47
2022-08-29T07:31:39.311Z,97767.75
2022-08-29T07:34:06.931Z,97758.38
2022-08-29T07:36:34.863Z,97763.34
2022-08-29T07:39:04.930Z,97769.22
2022-08-29T07:41:32.249Z,97765.69
2022-08-29T07:43:59.225Z,97767.13
2022-08-29T07:46:27.064Z,97768.84
2022-08-29T07:48:54.254Z,97768.28
2022-08-29T07:51:23.462Z,97770.72
2022-08-29T07:53:51.196Z,97771.38
2022-08-29T07:56:23.308Z,97774.28
2022-08-29T07:58:52.174Z,97775.44
2022-08-29T08:01:21.001Z,97774.88
2022-08-29T08:03:50.348Z,97783.06
2022-08-29T08:06:19.709Z,97781.47
2022-08-29T08:08:46.885Z,97776.53
2022-08-29T08:11:13.916Z,97781.19
2022-08-29T08:13:41.120Z,97781.41
2022-08-29T08:16:11.574Z,97781.59
2022-08-29T08:18:40.395Z,97776.41
2022-08-29T08:21:08.018Z,97778.34
2022-08-29T08:23:35.793Z,97777.19
2022-08-29T08:26:03.537Z,97777.56
2022-08-29T08:28:30.852Z,97787.00
2022-08-29T08:31:05.133Z,97783.81
2022-08-29T08:33:34.929Z,97786.75
2022-08-29T08:36:03.483Z,97784.63
2022-08-29T08:38:31.654Z,97774.56
2022-08-29T08:41:07.785Z,97777.63
2022-08-29T08:43:46.491Z,97773.59
2022-08-29T08:46:14.060Z,97776.31
2022-08-29T08:48:41.338Z,97774.88
2022-08-29T08:51:18.168Z,97774.72
2022-08-29T08:53:49.825Z,97776.69
2022-08-29T08:56:29.123Z,97783.13
2022-08-29T08:59:07.038Z,97771.09
2022-08-29T09:01:45.479Z,97776.66
2022-08-29T09:04:18.598Z,97771.91
2022-08-29T09:06:45.621Z,97764.81
2022-08-29T09:09:14.398Z,97773.22
2022-08-29T09:11:56.310Z,97769.16
2022-08-29T09:14:38.099Z,97771.31
2022-08-29T09:17:07.966Z,97773.00
2022-08-29T09:19:35.125Z,97769.91
2022-08-29T09:22:16.603Z,97762.97
2022-08-29T09:24:55.152Z,97769.34
2022-08-29T09:27:28.844Z,97765.75
2022-08-29T09:30:20.693Z,97764.91
2022-08-29T09:32:56.511Z,97762.25
2022-08-29T09:35:29.181Z,97766.38
2022-08-29T09:38:05.902Z,97770.50
2022-08-29T09:40:48.705Z,97775.66
2022-08-29T09:43:25.617Z,97771.25
2022-08-29T10:17:42.612Z,97765.78
2022-08-29T10:20:11.862Z,97764.66
2022-08-29T10:23:08.167Z,97771.22
2022-08-29T10:25:39.802Z,97770.63
2022-08-29T10:28:43.373Z,97773.19
2022-08-29T10:31:33.057Z,97763.66
2022-08-29T10:34:05.903Z,97773.44
2022-08-29T10:36:37.215Z,97778.59
2022-08-29T10:39:17.068Z,97782.16
2022-08-29T10:41:57.006Z,97778.81
2022-08-29T10:44:51.491Z,97782.06
2022-08-29T10:47:32.914Z,97789.28
2022-08-29T10:50:42.620Z,97780.06
2022-08-29T10:53:20.577Z,97771.63
2022-08-29T10:56:18.427Z,97768.25
2022-08-29T10:58:51.065Z,97772.47
2022-08-29T11:01:36.825Z,97764.91
2022-08-29T11:04:22.724Z,97766.28
2022-08-29T11:07:02.132Z,97774.75
2022-08-29T11:09:35.488Z,97769.69
2022-08-29T11:12:07.938Z,97762.63
2022-08-29T11:15:03.441Z,97757.28
2022-08-29T11:17:36.362Z,97758.28
2022-08-29T11:20:05.465Z,97756.00
2022-08-29T11:22:48.565Z,97750.06
2022-08-29T11:25:21.318Z,97746.41
2022-08-29T11:28:06.606Z,97744.63
2022-08-29T11:30:46.129Z,97740.38
2022-08-29T11:33:15.068Z,97733.56
2022-08-29T11:36:12.567Z,97736.97
2022-08-29T11:39:15.683Z,97742.38
2022-08-29T11:41:46.640Z,97736.13
2022-08-29T11:44:42.959Z,97735.31
2022-08-29T11:47:58.328Z,97733.16
2022-08-29T11:50:37.278Z,97739.50
2022-08-29T11:53:34.108Z,97738.47
2022-08-29T11:56:13.200Z,97737.00
2022-08-29T11:58:43.169Z,97735.88
2022-08-29T12:01:36.072Z,97735.53
2022-08-29T12:04:08.850Z,97722.03
2022-08-29T12:06:42.542Z,97738.38
2022-08-29T12:09:13.840Z,97739.44
2022-08-29T12:11:59.491Z,97743.81
2022-08-29T12:14:38.309Z,97743.69
2022-08-29T12:17:09.790Z,97732.41
2022-08-29T12:20:05.357Z,97728.72
2022-08-29T12:23:03.896Z,97727.84
2022-08-29T12:26:03.836Z,97729.53
2022-08-29T12:29:00.509Z,97729.13
2022-08-29T12:31:33.189Z,97731.75
2022-08-29T12:34:08.333Z,97723.69
2022-08-29T12:37:02.091Z,97725.41
2022-08-29T12:39:43.993Z,97726.84
2022-08-29T12:42:28.572Z,97728.63
2022-08-29T12:45:00.658Z,97718.31
2022-08-29T12:47:27.692Z,97716.25
2022-08-29T12:50:01.125Z,97721.91
2022-08-29T12:52:34.421Z,97721.16
2022-08-29T12:55:28.773Z,97716.59
2022-08-29T12:57:57.636Z,97718.38
2022-08-29T13:00:30.425Z,97717.88
2022-08-29T13:03:09.411Z,97721.91
2022-08-29T13:05:42.701Z,97717.06
2022-08-29T13:08:27.778Z,97713.69
2022-08-29T13:10:58.986Z,97720.97
2022-08-29T13:13:26.816Z,97722.16
2022-08-29T13:15:56.871Z,97717.09
2022-08-29T13:18:24.489Z,97716.53
2022-08-29T13:21:12.289Z,97713.41
2022-08-29T13:23:47.682Z,97713.59
2022-08-29T13:26:14.634Z,97708.09
2022-08-29T13:28:53.339Z,97700.97
2022-08-29T13:31:21.497Z,97708.63
2022-08-29T13:33:51.118Z,97711.38
2022-08-29T13:36:39.008Z,97703.16
2022-08-29T13:39:18.095Z,97708.00
2022-08-29T13:42:03.200Z,97700.28
2022-08-29T13:44:33.896Z,97704.66
2022-08-29T13:47:04.459Z,97705.97
2022-08-29T13:49:34.649Z,97698.50
2022-08-29T13:52:03.009Z,97697.84
2022-08-29T13:54:31.345Z,97697.72
2022-08-29T13:57:00.385Z,97693.06
2022-08-29T13:59:36.016Z,97698.97
2022-08-29T14:02:08.945Z,97695.72
2022-08-29T14:04:39.621Z,97696.53
2022-08-29T14:07:11.634Z,97699.94
2022-08-29T14:09:42.944Z,97682.56
2022-08-29T14:12:10.490Z,97685.13
2022-08-29T14:14:37.454Z,97681.25
2022-08-29T14:17:05.266Z,97679.91
2022-08-29T14:19:33.652Z,97682.91
2022-08-29T14:22:02.291Z,97680.72
2022-08-29T14:24:31.091Z,97683.81
2022-08-29T14:27:01.309Z,97683.13
2022-08-29T14:29:30.783Z,97680.81
2022-08-29T14:31:58.985Z,97685.53
2022-08-29T14:34:30.844Z,97686.56
2022-08-29T14:37:01.674Z,97685.66
2022-08-29T14:39:29.107Z,97686.34
2022-08-29T14:41:56.145Z,97688.34
2022-08-29T14:44:23.701Z,97681.09
2022-08-29T14:46:51.378Z,97673.56
2022-08-29T14:49:19.158Z,97670.91
2022-08-29T14:51:46.283Z,97671.00
2022-08-29T14:54:13.639Z,97667.13
2022-08-29T14:56:48.572Z,97676.06
2022-08-29T14:59:18.456Z,97666.03
2022-08-29T15:01:47.723Z,97670.47
2022-08-29T15:04:21.707Z,97673.09
2022-08-29T15:07:02.302Z,97673.03
2022-08-29T15:09:29.234Z,97671.19
2022-08-29T15:11:56.208Z,97675.06
2022-08-29T15:14:23.237Z,97670.16
2022-08-29T15:16:50.234Z,97665.34
2022-08-29T15:20:03.725Z,97666.16
2022-08-29T15:22:05.561Z,97660.88
2022-08-29T15:24:32.887Z,97661.69
2022-08-29T15:26:59.929Z,97657.91
2022-08-29T15:29:27.486Z,97661.22
2022-08-29T15:31:57.363Z,97658.56
2022-08-29T15:34:29.157Z,97653.91
2022-08-29T15:36:57.135Z,97655.50
2022-08-29T15:39:27.535Z,97666.03
2022-08-29T15:42:01.212Z,97662.84
2022-08-29T15:44:28.926Z,97648.94
2022-08-29T15:46:56.957Z,97652.69
2022-08-29T15:49:26.067Z,97659.34
2022-08-29T15:51:54.531Z,97661.41
2022-08-29T15:54:23.526Z,97656.94
2022-08-29T15:56:50.915Z,97652.81
2022-08-29T15:59:18.772Z,97650.13
2022-08-29T16:01:51.775Z,97652.22
2022-08-29T16:04:21.673Z,97661.91
2022-08-29T16:06:50.145Z,97660.50
2022-08-29T16:09:17.396Z,97659.56
2022-08-29T16:11:46.567Z,97658.59
2022-08-29T16:14:57.917Z,97661.31
2022-08-29T16:17:01.972Z,97661.72
2022-08-29T16:19:29.830Z,97665.66
2022-08-29T16:22:00.274Z,97671.44
2022-08-29T16:24:30.503Z,97669.16
2022-08-29T16:26:59.677Z,97668.75
2022-08-29T16:32:50.129Z,97673.19
2022-08-29T16:35:18.555Z,97673.59
2022-08-29T16:37:46.081Z,97684.28
2022-08-29T16:40:19.033Z,97678.34
2022-08-29T16:42:55.682Z,97670.84
2022-08-29T16:45:23.511Z,97668.91
2022-08-29T16:47:54.100Z,97673.78
2022-08-29T16:50:24.058Z,97675.41
2022-08-29T16:52:50.964Z,97676.50
2022-08-29T16:55:17.957Z,97667.25
2022-08-29T16:58:04.793Z,97670.50
2022-08-29T17:00:32.351Z,97670.69
2022-08-29T17:02:59.430Z,97666.69
2022-08-29T17:05:27.054Z,97675.38
2022-08-29T17:07:53.969Z,97691.19
2022-08-29T17:10:20.854Z,97691.66
2022-08-29T17:12:47.727Z,97690.72
2022-08-29T17:15:14.740Z,97695.91
2022-08-29T17:17:41.749Z,97688.66
2022-08-29T17:20:10.928Z,97702.00
2022-08-29T17:22:38.054Z,97704.78
2022-08-29T17:25:05.695Z,97704.97
2022-08-29T17:27:32.656Z,97701.44
2022-08-29T17:29:59.570Z,97708.84
2022-08-29T17:32:26.538Z,97709.97
2022-08-29T17:34:53.570Z,97708.38
2022-08-29T17:37:20.457Z,97715.31
2022-08-29T17:39:47.594Z,97717.25
2022-08-29T17:42:14.489Z,97720.31
2022-08-29T17:44:41.801Z,97725.94
2022-08-29T17:47:08.711Z,97729.47
2022-08-29T17:49:35.642Z,97735.56
2022-08-29T17:52:02.845Z,97729.16
2022-08-29T17:54:29.922Z,97736.88
2022-08-29T17:56:59.289Z,97740.22
2022-08-29T17:59:28.476Z,97748.91
2022-08-29T18:01:56.671Z,97746.66
2022-08-29T18:04:24.629Z,97751.31
2022-08-29T18:06:52.238Z,97746.00
2022-08-29T18:09:20.092Z,97750.66
2022-08-29T18:11:50.054Z,97748.25
2022-08-29T18:14:18.540Z,97752.25
2022-08-29T18:16:45.582Z,97752.59
2022-08-29T18:19:15.290Z,97754.53
2022-08-29T18:21:44.427Z,97754.22
2022-08-29T18:24:14.016Z,97752.94
2022-08-29T18:26:42.641Z,97748.25
2022-08-29T18:29:10.079Z,97756.13
2022-08-29T18:31:37.029Z,97747.47
2022-08-29T18:34:04.019Z,97751.78
2022-08-29T18:36:33.219Z,97748.22
2022-08-29T18:39:01.456Z,97755.00
2022-08-29T18:41:28.421Z,97753.84
2022-08-29T18:43:55.542Z,97750.97
2022-08-29T18:46:22.597Z,97754.31
2022-08-29T18:48:49.629Z,97758.19
2022-08-29T18:51:16.976Z,97754.00
2022-08-29T18:53:44.348Z,97753.59
2022-08-29T18:56:11.887Z,97747.47
2022-08-29T18:58:41.415Z,97753.72
2022-08-29T19:01:27.678Z,97756.13
2022-08-29T19:03:58.898Z,97748.56
2022-08-29T19:06:27.528Z,97744.50
2022-08-29T19:08:56.652Z,97742.94
2022-08-29T19:11:23.975Z,97740.81
2022-08-29T19:13:52.394Z,97743.19
2022-08-29T19:16:20.944Z,97743.13
2022-08-29T19:18:48.185Z,97744.31
2022-08-29T19:21:15.181Z,97741.91
2022-08-29T19:23:45.622Z,97752.50
2022-08-29T19:26:19.576Z,97748.50
2022-08-29T19:28:47.187Z,97746.31
2022-08-29T19:31:16.404Z,97751.47
2022-08-29T19:33:45.173Z,97750.47
2022-08-29T19:36:12.445Z,97743.13
2022-08-29T19:38:41.694Z,97752.16
2022-08-29T19:41:10.489Z,97748.75
2022-08-29T19:43:40.933Z,97744.91
2022-08-29T19:46:18.328Z,97739.41
2022-08-29T19:48:48.668Z,97737.69
2022-08-29T19:51:21.616Z,97740.09
2022-08-29T19:53:48.737Z,97741.16
2022-08-29T19:56:17.814Z,97749.13
2022-08-29T19:58:44.905Z,97750.53
2022-08-29T20:01:12.052Z,97750.53
2022-08-29T20:03:41.224Z,97740.19
2022-08-29T20:06:08.825Z,97749.03
2022-08-29T20:08:42.792Z,97743.19
2022-08-29T20:11:14.493Z,97748.34
2022-08-29T20:13:47.628Z,97748.09
2022-08-29T20:16:22.663Z,97739.59
2022-08-29T20:18:50.866Z,97745.06
2022-08-29T20:21:19.495Z,97739.19
2022-08-29T20:23:49.693Z,97740.50
2022-08-29T20:26:20.577Z,97742.44
2022-08-29T20:28:48.862Z,97741.13
2022-08-29T20:31:16.189Z,97736.66
2022-08-29T20:33:44.935Z,97742.00
2022-08-29T20:36:31.121Z,97737.03
2022-08-29T20:38:58.291Z,97737.56
2022-08-29T20:41:25.964Z,97739.47
2022-08-29T20:43:52.912Z,97736.25
2022-08-29T20:46:19.902Z,97738.47
2022-08-29T20:48:46.919Z,97737.56
2022-08-29T20:51:13.826Z,97733.41
2022-08-29T20:53:41.179Z,97738.44
2022-08-29T20:56:08.513Z,97741.38
2022-08-29T20:58:36.188Z,97734.78
2022-08-29T21:01:03.228Z,97733.75
2022-08-29T21:03:48.692Z,97734.56
2022-08-29T21:06:19.023Z,97740.81
2022-08-29T21:08:46.543Z,97741.44
2022-08-29T21:11:14.538Z,97731.34
2022-08-29T21:13:43.599Z,97736.94
2022-08-29T21:16:11.651Z,97741.59
2022-08-29T21:18:39.105Z,97742.03
2022-08-29T21:21:06.279Z,97743.63
2022-08-29T21:23:34.412Z,97744.06
2022-08-29T21:26:02.034Z,97742.66
2022-08-29T21:28:32.912Z,97737.81
2022-08-29T21:31:11.092Z,97747.06
2022-08-29T21:33:40.770Z,97742.78
2022-08-29T21:36:12.602Z,97746.22
2022-08-29T21:38:39.527Z,97745.19
2022-08-29T21:41:12.116Z,97751.16
2022-08-29T21:43:40.122Z,97757.97
2022-08-29T21:46:20.949Z,97756.38
2022-08-29T21:48:48.660Z,97751.59
2022-08-29T21:51:18.850Z,97748.03
2022-08-29T21:53:47.503Z,97740.00
2022-08-29T21:56:14.490Z,97741.16
2022-08-29T21:58:41.590Z,97748.22
2022-08-29T22:01:11.416Z,97744.97
2022-08-29T22:03:39.696Z,97746.84
2022-08-29T22:06:09.234Z,97739.78
2022-08-29T22:08:38.548Z,97743.81
2022-08-29T22:11:19.671Z,97740.72
2022-08-29T22:13:46.608Z,97741.38
2022-08-29T22:16:28.821Z,97749.13
2022-08-29T22:19:03.477Z,97736.91
2022-08-29T22:21:33.869Z,97737.66
2022-08-29T22:24:01.499Z,97742.09
2022-08-29T22:26:28.932Z,97743.88
2022-08-29T22:28:56.079Z,97738.38
2022-08-29T22:31:23.717Z,97735.19
2022-08-29T22:33:51.354Z,97742.16
2022-08-29T22:36:19.349Z,97736.41
2022-08-29T22:38:47.863Z,97737.69
2022-08-29T22:41:23.522Z,97735.72
2022-08-29T22:44:04.702Z,97744.50
2022-08-29T22:46:43.295Z,97740.53
2022-08-29T22:49:10.473Z,97743.59
2022-08-29T22:51:37.532Z,97740.34
2022-08-29T22:54:23.041Z,97745.19
2022-08-29T22:56:50.052Z,97741.84
2022-08-29T22:59:19.525Z,97741.78
2022-08-29T23:01:46.647Z,97736.91
2022-08-29T23:04:13.657Z,97735.53
2022-08-29T23:06:40.621Z,97744.16
2022-08-29T23:09:07.583Z,97742.28
2022-08-29T23:11:34.626Z,97738.16
2022-08-29T23:14:02.548Z,97730.69
2022-08-29T23:16:33.222Z,97737.63
2022-08-29T23:19:03.563Z,97736.09
2022-08-29T23:21:32.022Z,97734.41
2022-08-29T23:23:59.712Z,97735.53
2022-08-29T23:26:27.624Z,97735.13
2022-08-29T23:28:54.767Z,97734.75
2022-08-29T23:31:22.976Z,97743.28
2022-08-29T23:33:51.683Z,97728.47
2022-08-29T23:36:19.662Z,97730.94
2022-08-29T23:38:46.921Z,97734.28
2022-08-29T23:41:18.123Z,97740.59
2022-08-29T23:43:45.515Z,97732.88
2022-08-29T23:46:13.725Z,97727.38
2022-08-29T23:48:41.500Z,97726.16
2022-08-29T23:51:10.713Z,97729.78
2022-08-29T23:53:38.599Z,97719.34
2022-08-29T23:56:20.435Z,97722.44
2022-08-29T23:58:47.869Z,97719.69
